ADDS METAR Data INFO
IDs: Format: Raw Decoded Include TAF

Data at: 1533 UTC 18 Jun 2018

KOKV 181515Z AUTO 24007KT 10SM SCT055 SCT070 28/22 A3008 RMK AO2
KOKV 181455Z AUTO 20007KT 10SM BKN050 27/21 A3009 RMK AO2
KOKV 181435Z AUTO 22006KT 10SM BKN050 BKN065 27/21 A3009 RMK AO2
KOKV 181415Z AUTO 22006KT 10SM BKN050 BKN060 27/22 A3009 RMK AO2
KOKV 181355Z AUTO 20006KT 10SM SCT049 BKN060 27/22 A3010 RMK AO2
KOKV 181335Z AUTO 24005KT 10SM SCT060 26/21 A3010 RMK AO2
KOKV 181315Z AUTO 21005KT 10SM SCT060 26/21 A3010 RMK AO2
KOKV 181255Z AUTO 23005KT 10SM SCT060 25/21 A3010 RMK AO2
KOKV 181235Z AUTO 24006KT 10SM CLR 24/21 A3010 RMK AO2
KOKV 181215Z AUTO 23004KT 10SM CLR 23/21 A3010 RMK AO2
KOKV 181155Z AUTO 23006KT 10SM CLR 22/20 A3010 RMK AO2
KOKV 181135Z AUTO 23004KT 10SM SCT046 21/20 A3010 RMK AO2
KOKV 181115Z AUTO 00000KT 7SM SCT036 BKN046 21/20 A3010 RMK AO2
KOKV 181055Z AUTO 00000KT 7SM BKN036 BKN044 21/20 A3010 RMK AO2
KOKV 181035Z AUTO 00000KT 4SM BR SCT034 19/19 A3010 RMK AO2
KOKV 181015Z AUTO 00000KT 4SM BR CLR 19/18 A3011 RMK AO2
KOKV 180955Z AUTO 27003KT 4SM BR CLR 18/18 A3010 RMK AO2
KOKV 180935Z AUTO 00000KT 7SM CLR 18/18 A3010 RMK AO2
KOKV 180915Z AUTO 00000KT 1 3/4SM BR VV007 17/17 A3010 RMK AO2
KOKV 180855Z AUTO 00000KT 7SM CLR 18/18 A3010 RMK AO2
KOKV 180835Z AUTO 00000KT 7SM CLR 18/18 A3010 RMK AO2
KOKV 180815Z AUTO 00000KT 7SM CLR 19/18 A3010 RMK AO2
KOKV 180755Z AUTO 00000KT 5SM BR CLR 18/18 A3010 RMK AO2
KOKV 180735Z AUTO 00000KT 7SM CLR 19/18 A3010 RMK AO2
KOKV 180715Z AUTO 00000KT 10SM CLR 20/19 A3010 RMK AO2
KOKV 180655Z AUTO 00000KT 7SM CLR 19/18 A3010 RMK AO2
KOKV 180635Z AUTO 00000KT 5SM BR CLR 19/18 A3010 RMK AO2
KOKV 180615Z AUTO 00000KT 5SM BR CLR 19/18 A3010 RMK AO2
KOKV 180555Z AUTO 15004KT 5SM BR CLR 18/18 A3010 RMK AO2
KOKV 180535Z AUTO 00000KT 10SM CLR 19/18 A3011 RMK AO2
KOKV 180515Z AUTO 30003KT 10SM CLR 20/19 A3010 RMK AO2
KOKV 180455Z AUTO 00000KT 10SM CLR 20/19 A3011 RMK AO2
KOKV 180435Z AUTO 00000KT 10SM CLR 20/19 A3011 RMK AO2
KOKV 180415Z AUTO 00000KT 10SM CLR 21/19 A3011 RMK AO2
KOKV 180355Z AUTO 00000KT 10SM CLR 20/18 A3011 RMK AO2
KOKV 180335Z AUTO 00000KT 10SM CLR 20/19 A3010 RMK AO2
KOKV 180315Z AUTO 00000KT 10SM CLR 21/19 A3011 RMK AO2
KOKV 180255Z AUTO 00000KT 10SM CLR 21/20 A3011 RMK AO2
KOKV 180235Z AUTO 00000KT 10SM CLR 21/20 A3011 RMK AO2
KOKV 180215Z AUTO 00000KT 10SM CLR 21/20 A3010 RMK AO2
KOKV 180155Z AUTO 00000KT 10SM CLR 21/20 A3010 RMK AO2
KOKV 180135Z AUTO 00000KT 10SM CLR 22/20 A3010 RMK AO2
KOKV 180115Z AUTO 00000KT 10SM CLR 22/21 A3009 RMK AO2 LTG DSNT S
KOKV 180055Z AUTO 00000KT 10SM CLR 23/21 A3009 RMK AO2
KOKV 180035Z AUTO 00000KT 10SM SCT090 23/21 A3009 RMK AO2
KOKV 180015Z AUTO 00000KT 10SM BKN090 24/20 A3009 RMK AO2
KOKV 172355Z AUTO 00000KT 10SM BKN090 26/21 A3009 RMK AO2
KOKV 172335Z AUTO 13003KT 10SM BKN090 27/21 A3008 RMK AO2
KOKV 172315Z AUTO 13003KT 10SM SCT090 27/20 A3008 RMK AO2
KOKV 172255Z AUTO 13003KT 10SM CLR 27/20 A3008 RMK AO2
KOKV 172235Z AUTO 13004KT 10SM CLR 27/20 A3009 RMK AO2
KOKV 172215Z AUTO 13004KT 10SM CLR 28/19 A3009 RMK AO2
KOKV 172155Z AUTO 15003KT 10SM CLR 28/19 A3010 RMK AO2
KOKV 172135Z AUTO 11003KT 10SM CLR 28/19 A3010 RMK AO2 LTG DSNT S
KOKV 172115Z AUTO 00000KT 10SM CLR 28/20 A3010 RMK AO2
KOKV 172055Z AUTO 00000KT 10SM CLR 27/19 A3011 RMK AO2
KOKV 172035Z AUTO 19003KT 10SM CLR 27/18 A3010 RMK AO2
KOKV 172015Z AUTO 22004KT 10SM CLR 27/20 A3011 RMK AO2
KOKV 171955Z AUTO 00000KT 10SM SCT090 27/20 A3010 RMK AO2
KOKV 171935Z AUTO 00000KT 10SM OVC090 26/20 A3011 RMK AO2
KOKV 171915Z AUTO 13003KT 10SM BKN080 OVC090 26/19 A3012 RMK AO2
KOKV 171855Z AUTO 00000KT 10SM OVC070 25/19 A3012 RMK AO2
KOKV 171835Z AUTO 00000KT 10SM SCT050 OVC070 25/20 A3012 RMK AO2
KOKV 171815Z AUTO 00000KT 10SM OVC050 25/19 A3013 RMK AO2
KOKV 171755Z AUTO 00000KT 10SM OVC050 25/20 A3013 RMK AO2
KOKV 171735Z AUTO 00000KT 10SM OVC050 25/20 A3014 RMK AO2
KOKV 171715Z AUTO 34003KT 10SM OVC050 25/20 A3015 RMK AO2
KOKV 171655Z AUTO 32003KT 10SM OVC050 25/20 A3015 RMK AO2
KOKV 171635Z AUTO 29004KT 10SM BKN055 BKN080 OVC090 25/20 A3015 RMK AO2
KOKV 171615Z AUTO 29003KT 10SM SCT060 BKN065 OVC090 25/19 A3015 RMK AO2
KOKV 171555Z AUTO 00000KT 10SM BKN060 OVC080 25/20 A3015 RMK AO2
KOKV 171535Z AUTO 19003KT 10SM SCT060 OVC080 24/20 A3014 RMK AO2
KOKV 171515Z AUTO 17004KT 10SM OVC060 23/20 A3015 RMK AO2
KOKV 171455Z AUTO 00000KT 10SM OVC060 23/19 A3015 RMK AO2
KOKV 171435Z AUTO 00000KT 10SM OVC060 23/19 A3014 RMK AO2
KOKV 171415Z AUTO 00000KT 10SM OVC060 23/19 A3015 RMK AO2
KOKV 171355Z AUTO 00000KT 10SM OVC060 23/18 A3014 RMK AO2
KOKV 171335Z AUTO 00000KT 10SM OVC060 23/18 A3013 RMK AO2
KOKV 171315Z AUTO 00000KT 10SM OVC060 23/18 A3013 RMK AO2
KOKV 171255Z AUTO 00000KT 10SM SCT060 BKN070 23/17 A3012 RMK AO2
KOKV 171235Z AUTO 00000KT 10SM SCT060 BKN090 23/17 A3012 RMK AO2
KOKV 171215Z AUTO 00000KT 10SM SCT070 OVC090 22/17 A3011 RMK AO2
KOKV 171155Z AUTO 24003KT 10SM SCT070 BKN090 OVC110 22/18 A3011 RMK AO2
KOKV 171135Z AUTO 00000KT 10SM SCT070 BKN100 22/18 A3010 RMK AO2
KOKV 171115Z AUTO 00000KT 10SM SCT070 21/18 A3009 RMK AO2
KOKV 171055Z AUTO 00000KT 10SM SCT070 20/18 A3010 RMK AO2
KOKV 171035Z AUTO 00000KT 10SM CLR 19/17 A3009 RMK AO2
KOKV 171015Z AUTO 00000KT 10SM SCT100 18/17 A3009 RMK AO2
KOKV 170955Z AUTO 00000KT 10SM SCT100 18/17 A3008 RMK AO2
KOKV 170935Z AUTO 00000KT 10SM CLR 18/17 A3007 RMK AO2
KOKV 170915Z AUTO 00000KT 10SM SCT110 18/17 A3005 RMK AO2
KOKV 170855Z AUTO 00000KT 10SM OVC110 18/17 A3006 RMK AO2
KOKV 170835Z AUTO 00000KT 10SM OVC110 18/17 A3006 RMK AO2
KOKV 170815Z AUTO 00000KT 10SM OVC100 19/17 A3005 RMK AO2
KOKV 170755Z AUTO 00000KT 10SM BKN100 OVC120 19/17 A3006 RMK AO2
KOKV 170735Z AUTO 00000KT 10SM OVC100 19/17 A3006 RMK AO2
KOKV 170715Z AUTO 00000KT 10SM OVC090 19/17 A3007 RMK AO2
KOKV 170655Z AUTO 00000KT 10SM OVC100 20/17 A3006 RMK AO2
KOKV 170635Z AUTO 00000KT 10SM OVC100 19/17 A3006 RMK AO2
KOKV 170615Z AUTO 00000KT 10SM BKN100 18/17 A3007 RMK AO2
KOKV 170555Z AUTO 00000KT 10SM SCT120 18/17 A3007 RMK AO2
KOKV 170535Z AUTO 00000KT 10SM SCT120 18/17 A3008 RMK AO2
KOKV 170515Z AUTO 00000KT 10SM SCT070 SCT120 19/17 A3008 RMK AO2
KOKV 170455Z AUTO 00000KT 10SM SCT070 SCT110 19/17 A3008 RMK AO2
KOKV 170435Z AUTO 00000KT 10SM BKN070 BKN110 20/17 A3008 RMK AO2
KOKV 170415Z AUTO 00000KT 10SM BKN070 20/17 A3008 RMK AO2
KOKV 170355Z AUTO 00000KT 10SM SCT080 SCT110 20/17 A3008 RMK AO2
KOKV 170335Z AUTO 00000KT 10SM SCT070 BKN110 20/17 A3007 RMK AO2